Time;durP1;ratioP1;P1;durP2;ratioP2;P2;SDS_P1;SDS_P2;PMS_P1;PMS_P2;Temp;Humidity;BMP_temperature;BMP_pressure;BME280_temperature;BME280_humidity;BME280_pressure;Samples;Min_cycle;Max_cycle;Signal;HPM_P1;HPM_P2
2023/12/19 00:01:13;;;;;;;16.75;10.43;;;8.00;55.50;;;;;;4999554;28;20065;-43
2023/12/19 00:03:42;;;;;;;17.02;10.73;;;8.00;55.50;;;;;;5000444;28;20054;-45
2023/12/19 00:06:09;;;;;;;15.15;9.88;;;8.00;55.60;;;;;;5000114;28;20061;-46
2023/12/19 00:08:37;;;;;;;17.67;10.15;;;8.00;55.60;;;;;;5001548;28;20053;-48
2023/12/19 00:11:04;;;;;;;17.88;11.02;;;8.00;55.60;;;;;;5002065;28;20065;-49
2023/12/19 00:13:33;;;;;;;15.35;9.57;;;8.10;55.70;;;;;;5001754;28;20049;-43
2023/12/19 00:16:03;;;;;;;15.70;9.25;;;8.10;55.60;;;;;;5002261;28;20430;-47
2023/12/19 00:18:30;;;;;;;16.05;9.85;;;8.10;55.50;;;;;;4999933;28;20565;-42
2023/12/19 00:20:57;;;;;;;15.38;9.25;;;8.20;55.50;;;;;;5004653;28;20080;-45
2023/12/19 00:23:30;;;;;;;15.65;9.73;;;8.20;55.50;;;;;;5005096;28;20053;-44
2023/12/19 00:25:57;;;;;;;15.38;9.27;;;8.20;55.50;;;;;;5004241;28;20064;-43
2023/12/19 00:28:27;;;;;;;14.63;9.15;;;8.20;55.30;;;;;;5008174;28;20073;-41
2023/12/19 00:30:55;;;;;;;15.10;8.65;;;8.20;55.00;;;;;;4999098;28;20509;-44
2023/12/19 00:33:23;;;;;;;14.23;9.20;;;8.30;54.80;;;;;;5001360;28;20053;-37
2023/12/19 00:35:51;;;;;;;13.93;8.88;;;8.30;54.80;;;;;;5000297;28;20057;-36
2023/12/19 00:38:18;;;;;;;13.73;8.35;;;8.30;54.80;;;;;;5003944;28;20406;-36
2023/12/19 00:40:45;;;;;;;14.95;8.55;;;8.30;54.70;;;;;;5005206;28;20897;-36
2023/12/19 00:43:13;;;;;;;12.70;8.27;;;8.30;54.70;;;;;;5000311;28;20065;-36
2023/12/19 00:45:40;;;;;;;14.40;8.02;;;8.30;54.70;;;;;;5001517;28;20050;-36
2023/12/19 00:48:10;;;;;;;13.30;8.13;;;8.30;54.70;;;;;;5004386;28;20085;-37
2023/12/19 00:50:37;;;;;;;14.63;8.90;;;8.30;54.60;;;;;;5003551;28;20406;-37
2023/12/19 00:53:04;;;;;;;11.88;7.82;;;8.30;54.60;;;;;;5001126;28;20069;-36
2023/12/19 00:55:31;;;;;;;13.77;8.18;;;8.40;54.70;;;;;;5001602;28;20054;-37
2023/12/19 00:57:59;;;;;;;14.15;8.13;;;8.40;54.70;;;;;;5003743;28;20052;-37
2023/12/19 01:00:26;;;;;;;14.90;8.80;;;8.40;54.70;;;;;;5004793;28;20077;-37
2023/12/19 01:02:53;;;;;;;11.80;7.97;;;8.40;54.60;;;;;;5002374;28;20058;-37
2023/12/19 01:05:21;;;;;;;14.60;8.40;;;8.40;54.70;;;;;;5000719;28;20050;-37
2023/12/19 01:07:49;;;;;;;13.13;8.20;;;8.40;54.80;;;;;;4998703;28;20061;-37
2023/12/19 01:10:16;;;;;;;13.70;8.13;;;8.40;54.70;;;;;;5003048;28;20062;-37
2023/12/19 01:12:43;;;;;;;13.43;8.25;;;8.40;54.80;;;;;;5002789;28;20077;-37
2023/12/19 01:15:11;;;;;;;13.32;8.35;;;8.40;54.80;;;;;;5000042;28;20050;-36
2023/12/19 01:17:38;;;;;;;14.00;7.82;;;8.40;54.90;;;;;;4996713;28;20047;-36
2023/12/19 01:20:06;;;;;;;14.85;8.38;;;8.40;55.00;;;;;;5004003;28;20511;-37
2023/12/19 01:22:35;;;;;;;13.98;8.20;;;8.50;55.10;;;;;;4997606;28;20061;-37
2023/12/19 01:25:02;;;;;;;14.40;8.40;;;8.50;55.10;;;;;;5004721;28;20410;-36
2023/12/19 01:27:29;;;;;;;12.88;8.57;;;8.50;55.10;;;;;;4999478;28;20058;-37
2023/12/19 01:29:56;;;;;;;12.57;7.80;;;8.50;55.20;;;;;;4999026;28;20061;-37
2023/12/19 01:32:23;;;;;;;13.85;7.93;;;8.50;55.20;;;;;;4998598;28;20046;-36
2023/12/19 01:34:52;;;;;;;13.32;8.35;;;8.50;55.30;;;;;;5000713;28;20061;-37
2023/12/19 01:37:20;;;;;;;11.25;7.15;;;8.60;55.40;;;;;;4998901;28;20497;-37
2023/12/19 01:39:48;;;;;;;14.05;7.97;;;8.50;55.40;;;;;;5003044;28;20057;-35
2023/12/19 01:42:16;;;;;;;13.52;7.47;;;8.50;55.40;;;;;;5003421;28;20740;-46
2023/12/19 01:44:59;;;;;;;11.80;7.43;;;8.60;55.50;;;;;;4998793;28;20053;-36
2023/12/19 01:47:27;;;;;;;11.38;7.80;;;8.60;55.50;;;;;;4998474;28;20414;-36
2023/12/19 01:49:54;;;;;;;11.93;7.68;;;8.60;55.50;;;;;;5000519;28;20064;-35
2023/12/19 01:52:21;;;;;;;12.55;7.82;;;8.70;55.50;;;;;;5003233;28;20503;-36
2023/12/19 01:54:50;;;;;;;12.70;8.25;;;8.60;55.50;;;;;;5000363;28;20428;-36
2023/12/19 01:57:18;;;;;;;13.80;7.93;;;8.70;55.60;;;;;;4996493;28;20065;-36
2023/12/19 01:59:45;;;;;;;14.32;7.53;;;8.70;55.60;;;;;;4998751;28;20053;-36
2023/12/19 02:02:12;;;;;;;11.57;6.80;;;8.70;55.60;;;;;;5000106;28;20053;-37
2023/12/19 02:04:40;;;;;;;10.98;7.18;;;8.70;55.70;;;;;;4997038;28;20045;-36
2023/12/19 02:07:07;;;;;;;11.07;7.45;;;8.70;55.70;;;;;;4999036;28;20050;-36
2023/12/19 02:09:35;;;;;;;11.55;7.38;;;8.80;55.80;;;;;;4997511;28;20509;-36
2023/12/19 02:12:05;;;;;;;17.80;9.63;;;8.70;55.80;;;;;;5000249;28;20053;-36
2023/12/19 02:14:32;;;;;;;16.20;10.32;;;8.80;55.80;;;;;;5001058;28;20058;-36
2023/12/19 02:17:00;;;;;;;19.63;11.27;;;8.80;55.70;;;;;;5000927;28;20050;-36
2023/12/19 02:19:27;;;;;;;19.35;11.90;;;8.80;55.70;;;;;;4995295;28;20509;-36
2023/12/19 02:21:54;;;;;;;15.48;10.05;;;8.80;56.00;;;;;;5000411;28;20057;-37
2023/12/19 02:24:24;;;;;;;17.95;10.90;;;8.80;55.50;;;;;;5001958;28;20056;-37
2023/12/19 02:26:52;;;;;;;18.50;10.38;;;8.80;55.50;;;;;;4999201;28;20482;-37
2023/12/19 02:29:19;;;;;;;17.80;10.85;;;8.80;55.50;;;;;;4997740;28;20604;-37
2023/12/19 02:31:46;;;;;;;16.25;10.63;;;8.80;55.50;;;;;;4995208;28;20058;-37
2023/12/19 02:34:14;;;;;;;18.25;11.00;;;8.80;55.50;;;;;;4999821;28;20057;-37
2023/12/19 02:36:41;;;;;;;16.95;10.40;;;8.80;55.50;;;;;;4996259;28;20046;-37
2023/12/19 02:39:10;;;;;;;16.88;10.85;;;8.80;55.50;;;;;;5001505;28;20053;-37
2023/12/19 02:41:39;;;;;;;16.73;10.40;;;8.80;55.50;;;;;;5000950;28;20380;-37
2023/12/19 02:44:06;;;;;;;17.15;10.45;;;8.80;55.60;;;;;;4999331;28;20058;-36
2023/12/19 02:46:33;;;;;;;14.95;9.88;;;8.80;55.60;;;;;;4999135;28;20061;-36
2023/12/19 02:49:01;;;;;;;16.95;10.30;;;8.80;55.60;;;;;;4995626;28;20061;-37
2023/12/19 02:51:29;;;;;;;14.50;8.90;;;8.80;56.10;;;;;;5003589;28;20133;-37
2023/12/19 02:53:57;;;;;;;14.45;8.50;;;8.80;55.70;;;;;;5004705;28;20053;-37
2023/12/19 02:56:27;;;;;;;13.43;8.55;;;8.80;55.80;;;;;;5004150;28;20058;-37
2023/12/19 02:58:56;;;;;;;12.75;8.25;;;8.90;55.90;;;;;;4997415;28;20046;-37
2023/12/19 03:01:23;;;;;;;12.45;8.10;;;8.80;56.00;;;;;;5004000;28;20054;-37
2023/12/19 03:03:50;;;;;;;11.68;7.18;;;8.80;56.00;;;;;;5001338;28;20517;-36
2023/12/19 03:06:18;;;;;;;10.25;6.97;;;8.80;56.10;;;;;;4998984;28;20056;-36
2023/12/19 03:08:46;;;;;;;9.90;6.43;;;8.80;56.20;;;;;;5001205;28;20057;-36
2023/12/19 03:11:13;;;;;;;9.70;5.97;;;8.90;56.40;;;;;;4994648;28;20054;-36
2023/12/19 03:13:40;;;;;;;9.85;6.43;;;8.80;56.50;;;;;;5001361;28;20501;-37
2023/12/19 03:16:09;;;;;;;9.93;6.43;;;8.90;56.60;;;;;;4994813;28;20051;-36
2023/12/19 03:18:36;;;;;;;10.82;7.00;;;8.90;56.70;;;;;;4997823;28;20046;-37
2023/12/19 03:21:04;;;;;;;10.32;6.53;;;8.90;56.70;;;;;;4996652;28;20070;-36
2023/12/19 03:23:32;;;;;;;11.13;7.35;;;8.90;56.80;;;;;;4995308;28;20407;-37
2023/12/19 03:25:59;;;;;;;9.45;6.35;;;8.90;56.80;;;;;;5001190;28;20413;-37
2023/12/19 03:28:26;;;;;;;10.65;7.20;;;8.90;56.80;;;;;;4997535;28;20053;-38
2023/12/19 03:30:53;;;;;;;11.68;7.43;;;8.90;56.80;;;;;;4998846;28;20407;-37
2023/12/19 03:33:22;;;;;;;11.05;6.85;;;8.90;56.70;;;;;;4995946;28;20054;-36
2023/12/19 03:35:49;;;;;;;11.00;7.05;;;9.00;56.70;;;;;;4998580;28;20050;-36
2023/12/19 03:38:17;;;;;;;10.70;6.40;;;9.00;56.70;;;;;;4998678;28;20073;-36
2023/12/19 03:40:45;;;;;;;12.63;7.28;;;9.00;56.70;;;;;;4994899;28;20069;-36
2023/12/19 03:43:12;;;;;;;12.13;7.43;;;9.00;56.70;;;;;;5008175;28;20050;-36
2023/12/19 03:45:39;;;;;;;14.18;8.75;;;9.00;56.70;;;;;;5007151;28;20493;-37
2023/12/19 03:48:07;;;;;;;12.73;8.10;;;9.00;56.60;;;;;;5009730;28;20116;-36
2023/12/19 03:50:36;;;;;;;12.73;7.82;;;9.00;56.60;;;;;;5005456;28;20049;-36
2023/12/19 03:53:03;;;;;;;13.23;7.80;;;9.10;56.60;;;;;;5003104;28;20062;-36
2023/12/19 03:55:30;;;;;;;12.23;7.95;;;9.00;56.60;;;;;;5006624;28;20500;-38
2023/12/19 03:57:58;;;;;;;11.52;7.95;;;9.00;56.60;;;;;;5000334;28;20057;-37
2023/12/19 04:00:25;;;;;;;12.23;7.43;;;9.00;56.60;;;;;;4997986;28;20047;-37
2023/12/19 04:02:52;;;;;;;12.05;7.40;;;9.00;56.50;;;;;;5003406;28;20050;-36
2023/12/19 04:05:20;;;;;;;10.55;6.90;;;9.00;56.50;;;;;;5002212;28;20486;-45
2023/12/19 04:07:48;;;;;;;11.10;6.85;;;9.00;56.40;;;;;;5005661;28;20050;-49
2023/12/19 04:10:16;;;;;;;11.45;6.70;;;9.10;56.40;;;;;;5002970;28;20421;-44
2023/12/19 04:12:43;;;;;;;9.88;6.55;;;9.10;56.30;;;;;;4999674;28;20411;-47
2023/12/19 04:15:11;;;;;;;10.23;6.75;;;9.00;56.30;;;;;;5002913;28;20057;-46
2023/12/19 04:17:38;;;;;;;9.82;6.68;;;9.00;56.20;;;;;;4999354;28;20054;-46
2023/12/19 04:20:06;;;;;;;9.77;6.45;;;9.00;56.20;;;;;;5007850;28;20050;-42
2023/12/19 04:22:34;;;;;;;9.82;6.70;;;9.00;56.10;;;;;;5014859;28;20050;-48
2023/12/19 04:25:03;;;;;;;9.93;7.00;;;9.00;56.10;;;;;;5013162;28;20049;-49
2023/12/19 04:27:31;;;;;;;12.95;6.47;;;9.00;56.00;;;;;;5006948;28;20806;-50
2023/12/19 04:29:58;;;;;;;8.75;6.47;;;9.00;55.90;;;;;;5006780;28;20050;-43
2023/12/19 04:32:26;;;;;;;11.18;6.53;;;8.90;55.90;;;;;;5005988;28;20058;-41
2023/12/19 04:34:53;;;;;;;11.02;6.95;;;8.90;55.80;;;;;;5001495;28;20414;-46
2023/12/19 04:37:22;;;;;;;9.23;6.35;;;8.90;55.90;;;;;;5001911;28;20054;-50
2023/12/19 04:39:49;;;;;;;8.95;6.05;;;8.90;55.90;;;;;;5004053;28;20054;-45
2023/12/19 04:42:18;;;;;;;9.30;6.28;;;8.90;55.90;;;;;;5001611;28;20061;-48
2023/12/19 04:44:45;;;;;;;9.75;6.28;;;8.80;55.90;;;;;;5006527;28;20057;-43
2023/12/19 04:47:13;;;;;;;7.78;5.45;;;8.80;55.90;;;;;;5001802;28;20046;-47
2023/12/19 04:49:40;;;;;;;9.30;6.70;;;8.80;55.80;;;;;;5007201;28;20057;-45
2023/12/19 04:52:08;;;;;;;8.88;5.80;;;8.80;55.80;;;;;;5010029;28;20050;-49
2023/12/19 04:54:35;;;;;;;9.30;6.20;;;8.70;55.80;;;;;;5005764;28;20073;-48
2023/12/19 04:57:05;;;;;;;8.85;6.32;;;8.80;55.90;;;;;;5004285;28;20157;-47
2023/12/19 04:59:34;;;;;;;8.48;6.30;;;8.70;55.90;;;;;;5006873;28;20049;-47
2023/12/19 05:02:02;;;;;;;10.80;6.85;;;8.70;55.90;;;;;;5002611;28;20054;-49
2023/12/19 05:04:29;;;;;;;11.02;6.75;;;8.70;55.90;;;;;;5007708;28;20498;-50
2023/12/19 05:06:57;;;;;;;9.50;6.55;;;8.60;55.90;;;;;;5004301;28;20053;-48
2023/12/19 05:09:25;;;;;;;10.13;6.63;;;8.70;55.90;;;;;;5011351;28;20062;-46
2023/12/19 05:11:52;;;;;;;9.77;6.38;;;8.60;55.90;;;;;;5005458;28;20054;-49
2023/12/19 05:14:20;;;;;;;9.20;6.22;;;8.60;55.90;;;;;;5004943;28;20050;-37
2023/12/19 05:16:48;;;;;;;11.15;6.75;;;8.60;55.90;;;;;;5004245;28;20490;-36
2023/12/19 05:19:15;;;;;;;11.45;6.90;;;8.50;55.90;;;;;;5006773;28;20065;-37
2023/12/19 05:21:43;;;;;;;10.48;6.78;;;8.50;55.90;;;;;;5005731;28;20050;-36
2023/12/19 05:24:10;;;;;;;8.90;6.30;;;8.60;56.00;;;;;;4996468;28;20050;-37
2023/12/19 05:26:37;;;;;;;12.65;7.18;;;8.50;56.00;;;;;;5000094;28;20601;-37
2023/12/19 05:29:04;;;;;;;11.35;6.60;;;8.50;56.00;;;;;;5003049;28;20053;-37
2023/12/19 05:31:32;;;;;;;10.30;6.95;;;8.50;56.00;;;;;;5004544;28;20054;-37
2023/12/19 05:34:00;;;;;;;11.50;6.95;;;8.50;56.00;;;;;;5000923;28;20054;-37
2023/12/19 05:36:28;;;;;;;24.92;13.52;;;8.40;56.00;;;;;;4996197;28;20042;-37
2023/12/19 05:38:55;;;;;;;16.80;9.63;;;8.50;56.10;;;;;;5001401;28;20057;-36
2023/12/19 05:41:22;;;;;;;10.07;6.90;;;8.40;56.10;;;;;;5002273;28;20054;-36
2023/12/19 05:43:53;;;;;;;10.85;7.00;;;8.40;56.10;;;;;;4999541;28;20510;-37
2023/12/19 05:46:21;;;;;;;11.77;7.13;;;8.40;56.10;;;;;;5005871;28;20049;-36
2023/12/19 05:48:48;;;;;;;13.38;7.82;;;8.40;56.10;;;;;;5007169;28;20058;-36
2023/12/19 05:51:16;;;;;;;10.02;6.90;;;8.40;56.10;;;;;;5002737;28;20062;-36
2023/12/19 05:53:44;;;;;;;10.27;6.45;;;8.40;56.20;;;;;;5001721;28;20968;-37
2023/12/19 05:56:13;;;;;;;9.57;6.32;;;8.30;56.30;;;;;;5001362;28;20061;-36
2023/12/19 05:58:40;;;;;;;12.80;6.60;;;8.30;56.40;;;;;;5004022;28;20522;-36
2023/12/19 06:01:08;;;;;;;11.40;6.32;;;8.30;56.50;;;;;;5002824;28;20054;-36
2023/12/19 06:03:37;;;;;;;32.50;15.32;;;8.30;56.60;;;;;;5001296;28;20050;-36
2023/12/19 06:06:04;;;;;;;21.88;11.55;;;8.30;56.60;;;;;;4999345;28;20049;-37
2023/12/19 06:08:33;;;;;;;11.77;7.72;;;8.30;56.70;;;;;;4999647;28;20046;-37
2023/12/19 06:11:00;;;;;;;10.65;7.07;;;8.20;56.80;;;;;;5009434;28;20046;-37
2023/12/19 06:13:29;;;;;;;12.65;6.72;;;8.30;56.90;;;;;;5002829;28;20053;-37
2023/12/19 06:15:56;;;;;;;12.57;7.25;;;8.20;56.90;;;;;;4998994;28;20049;-36
2023/12/19 06:18:23;;;;;;;10.23;6.95;;;8.20;57.00;;;;;;5001910;28;20410;-36
2023/12/19 06:20:52;;;;;;;11.10;6.93;;;8.20;57.10;;;;;;5004265;28;20056;-36
2023/12/19 06:23:19;;;;;;;11.50;7.68;;;8.20;57.10;;;;;;5003653;28;20405;-36
2023/12/19 06:25:47;;;;;;;14.27;7.82;;;8.20;57.20;;;;;;5001843;28;20062;-51
2023/12/19 06:28:16;;;;;;;11.15;7.22;;;8.20;57.30;;;;;;5004183;28;20057;-48
2023/12/19 06:30:44;;;;;;;13.57;7.63;;;8.20;57.30;;;;;;5006639;28;20050;-48
2023/12/19 06:33:11;;;;;;;10.68;6.60;;;8.20;57.40;;;;;;5004130;28;20494;-46
2023/12/19 06:35:40;;;;;;;9.32;6.57;;;8.10;57.40;;;;;;5003359;28;20065;-46
2023/12/19 06:38:08;;;;;;;48.63;21.10;;;8.10;57.40;;;;;;5001814;28;20046;-50
2023/12/19 06:40:36;;;;;;;18.00;10.43;;;8.10;57.50;;;;;;4999587;28;20045;-47
2023/12/19 06:43:05;;;;;;;15.90;8.45;;;8.10;57.50;;;;;;5003412;28;20414;-48
2023/12/19 06:45:33;;;;;;;10.73;6.85;;;8.10;57.50;;;;;;5002391;28;20418;-49
2023/12/19 06:48:02;;;;;;;11.10;6.88;;;8.10;57.60;;;;;;5001914;28;20046;-43
2023/12/19 06:50:29;;;;;;;11.20;6.78;;;8.10;57.60;;;;;;4997934;28;20502;-45
2023/12/19 06:52:57;;;;;;;10.95;6.50;;;8.10;57.70;;;;;;5002063;28;20513;-46
2023/12/19 06:55:25;;;;;;;9.02;6.43;;;8.10;57.70;;;;;;5004712;28;20087;-47
2023/12/19 06:57:55;;;;;;;9.45;5.88;;;8.10;57.50;;;;;;5006734;28;20493;-47
2023/12/19 07:00:23;;;;;;;10.43;6.60;;;8.10;57.80;;;;;;5009710;28;20062;-39
2023/12/19 07:02:50;;;;;;;9.77;6.30;;;8.10;57.80;;;;;;5006417;28;20046;-47
2023/12/19 07:05:18;;;;;;;9.43;6.07;;;8.10;57.90;;;;;;4998606;28;20053;-50
2023/12/19 07:07:47;;;;;;;8.88;5.78;;;8.10;57.90;;;;;;4997922;28;20054;-49
2023/12/19 07:10:15;;;;;;;10.82;6.55;;;8.10;57.90;;;;;;5004604;28;20080;-47
2023/12/19 07:12:42;;;;;;;8.27;5.45;;;8.10;57.90;;;;;;5003171;28;20490;-46
2023/12/19 07:15:10;;;;;;;10.43;6.18;;;8.10;57.90;;;;;;4997711;28;20050;-45
2023/12/19 07:17:38;;;;;;;7.30;4.60;;;8.10;57.90;;;;;;5000544;28;20410;-45
2023/12/19 07:20:08;;;;;;;8.23;5.47;;;8.20;58.00;;;;;;4997199;28;20510;-51
2023/12/19 07:22:35;;;;;;;7.80;5.45;;;8.20;58.00;;;;;;5004524;28;20402;-44
2023/12/19 07:25:03;;;;;;;8.27;5.00;;;8.20;58.00;;;;;;5001227;28;20057;-45
2023/12/19 07:27:32;;;;;;;9.38;5.10;;;8.20;58.00;;;;;;5001273;28;20542;-49
2023/12/19 07:29:59;;;;;;;8.10;5.22;;;8.20;58.00;;;;;;5004772;28;20053;-46
2023/12/19 07:32:26;;;;;;;9.32;5.47;;;8.20;58.00;;;;;;4998940;28;20046;-49
2023/12/19 07:34:55;;;;;;;7.35;4.63;;;8.20;57.90;;;;;;5006860;28;20065;-41
2023/12/19 07:37:22;;;;;;;6.72;4.72;;;8.20;57.90;;;;;;5001715;28;20045;-48
2023/12/19 07:39:50;;;;;;;7.78;4.93;;;8.20;57.90;;;;;;4999916;28;20061;-48
2023/12/19 07:42:18;;;;;;;6.78;4.60;;;8.20;57.90;;;;;;5000265;28;20057;-46
2023/12/19 07:44:45;;;;;;;6.65;4.10;;;8.20;57.90;;;;;;5001579;28;20054;-44
2023/12/19 07:47:13;;;;;;;7.75;4.75;;;8.30;57.90;;;;;;5002661;28;20502;-41
2023/12/19 07:49:40;;;;;;;6.22;4.40;;;8.30;57.90;;;;;;5002148;28;20486;-44
2023/12/19 07:52:09;;;;;;;7.15;4.38;;;8.30;57.90;;;;;;5004395;28;20062;-48
2023/12/19 07:54:37;;;;;;;7.28;4.35;;;8.30;57.90;;;;;;5003654;28;20057;-48
2023/12/19 07:57:04;;;;;;;7.85;4.22;;;8.30;57.90;;;;;;5003214;28;20490;-46
2023/12/19 07:59:32;;;;;;;6.22;4.60;;;8.30;57.90;;;;;;5002459;28;20061;-44
2023/12/19 08:01:59;;;;;;;5.80;4.45;;;8.30;57.90;;;;;;5001593;28;20061;-42
2023/12/19 08:04:26;;;;;;;6.45;3.80;;;8.40;57.90;;;;;;5001118;28;20065;-46
2023/12/19 08:06:54;;;;;;;4.95;3.78;;;8.40;57.90;;;;;;4999143;28;20057;-44
2023/12/19 08:09:22;;;;;;;6.75;3.90;;;8.40;57.90;;;;;;5004618;28;20057;-50
2023/12/19 08:11:49;;;;;;;5.90;3.95;;;8.40;58.00;;;;;;5004696;28;20064;-48
2023/12/19 08:14:18;;;;;;;4.00;3.10;;;8.50;58.00;;;;;;4995147;28;20554;-42
2023/12/19 08:16:46;;;;;;;6.18;4.03;;;8.40;57.90;;;;;;5000833;28;20062;-41
2023/12/19 08:19:14;;;;;;;5.43;3.45;;;8.50;58.00;;;;;;4994054;28;20057;-46
2023/12/19 08:21:54;;;;;;;5.95;3.42;;;8.50;57.90;;;;;;5000829;28;20057;-50
2023/12/19 08:24:25;;;;;;;6.80;3.28;;;8.50;57.90;;;;;;5002826;28;20060;-49
2023/12/19 08:26:53;;;;;;;6.15;3.33;;;8.50;57.90;;;;;;5002124;28;20057;-51
2023/12/19 08:29:20;;;;;;;4.80;3.47;;;8.60;58.00;;;;;;5004359;28;20070;-43
2023/12/19 08:31:47;;;;;;;5.00;3.25;;;8.50;57.90;;;;;;5003563;28;20057;-50
2023/12/19 08:34:18;;;;;;;4.63;3.35;;;8.60;57.90;;;;;;5002841;28;20077;-48
2023/12/19 08:36:45;;;;;;;5.72;3.30;;;8.60;57.90;;;;;;5004463;28;20053;-51
2023/12/19 08:39:13;;;;;;;5.10;3.22;;;8.60;57.90;;;;;;5008416;28;20061;-45
2023/12/19 08:41:45;;;;;;;29.08;12.63;;;8.60;57.90;;;;;;5001850;28;20050;-47
2023/12/19 08:44:12;;;;;;;9.88;5.53;;;8.60;57.90;;;;;;4997450;28;20068;-47
2023/12/19 08:46:40;;;;;;;5.80;3.67;;;8.60;57.80;;;;;;5009857;28;20064;-37
2023/12/19 08:49:07;;;;;;;6.38;3.60;;;8.60;57.80;;;;;;5001523;28;20525;-36
2023/12/19 08:51:34;;;;;;;6.40;4.13;;;8.70;57.80;;;;;;5001089;28;20061;-37
2023/12/19 08:54:01;;;;;;;6.82;3.80;;;8.70;57.80;;;;;;4999545;28;20804;-36
2023/12/19 08:56:28;;;;;;;5.22;3.47;;;8.70;57.80;;;;;;5006670;28;20061;-36
2023/12/19 08:58:57;;;;;;;4.70;3.40;;;8.70;57.70;;;;;;5003553;28;20057;-37
2023/12/19 09:01:24;;;;;;;6.53;3.17;;;8.70;57.70;;;;;;5005686;28;20050;-37
2023/12/19 09:03:52;;;;;;;5.30;3.08;;;8.70;57.80;;;;;;5001788;28;20060;-36
2023/12/19 09:06:19;;;;;;;6.57;3.65;;;8.70;57.80;;;;;;5001258;28;20050;-37
2023/12/19 09:08:47;;;;;;;6.45;4.00;;;8.80;57.80;;;;;;5002109;28;20042;-36
2023/12/19 09:11:14;;;;;;;5.72;3.90;;;8.80;57.80;;;;;;5000305;28;20066;-36
2023/12/19 09:13:42;;;;;;;9.23;3.80;;;8.80;57.80;;;;;;5001345;28;20517;-36
2023/12/19 09:16:11;;;;;;;9.48;4.03;;;8.80;57.80;;;;;;4999952;28;20054;-36
2023/12/19 09:18:38;;;;;;;5.90;4.35;;;8.80;57.90;;;;;;5000734;28;20073;-37
2023/12/19 09:21:07;;;;;;;6.78;3.90;;;8.90;57.90;;;;;;5003261;28;20050;-37
2023/12/19 09:23:34;;;;;;;4.53;3.30;;;8.90;57.90;;;;;;5001560;28;20058;-37
2023/12/19 09:26:03;;;;;;;6.10;3.60;;;8.90;57.80;;;;;;5001567;28;20525;-38
2023/12/19 09:28:31;;;;;;;7.85;4.68;;;8.90;57.80;;;;;;4999959;28;20490;-38
2023/12/19 09:30:58;;;;;;;7.57;4.40;;;8.90;57.70;;;;;;5003033;28;20177;-37
2023/12/19 09:33:28;;;;;;;6.63;4.30;;;9.00;57.80;;;;;;5005178;28;20058;-37
2023/12/19 09:35:55;;;;;;;6.38;4.18;;;9.00;57.70;;;;;;5002787;28;20578;-37
2023/12/19 09:38:22;;;;;;;7.55;4.97;;;9.00;57.60;;;;;;5003007;28;20049;-37
2023/12/19 09:40:49;;;;;;;7.47;5.05;;;9.00;57.50;;;;;;5007139;28;20379;-36
2023/12/19 09:43:17;;;;;;;7.22;4.80;;;9.00;57.40;;;;;;5008500;28;20053;-37
2023/12/19 09:45:47;;;;;;;7.85;4.85;;;9.00;57.30;;;;;;5005458;28;20054;-37
2023/12/19 09:48:15;;;;;;;7.20;4.82;;;9.00;57.30;;;;;;5003745;28;20053;-37
2023/12/19 09:50:45;;;;;;;7.00;4.57;;;9.10;57.40;;;;;;4999692;28;20045;-37
2023/12/19 09:53:15;;;;;;;9.75;5.30;;;9.10;57.40;;;;;;5003539;28;20066;-38
2023/12/19 09:55:44;;;;;;;8.50;4.97;;;9.10;57.40;;;;;;4995308;28;20050;-49
2023/12/19 09:58:13;;;;;;;9.18;5.10;;;9.10;57.40;;;;;;4999977;28;20117;-42
2023/12/19 10:00:44;;;;;;;7.18;4.55;;;9.10;57.50;;;;;;5003378;28;20422;-47
2023/12/19 10:03:12;;;;;;;7.13;4.32;;;9.10;57.50;;;;;;5003353;28;20403;-50
2023/12/19 10:05:39;;;;;;;5.88;4.25;;;9.20;57.50;;;;;;5002884;28;20046;-46
2023/12/19 10:08:08;;;;;;;7.90;4.47;;;9.20;57.50;;;;;;4998406;28;20050;-48
2023/12/19 10:10:53;;;;;;;6.97;4.35;;;9.20;57.60;;;;;;5003872;28;20474;-48
2023/12/19 10:13:27;;;;;;;8.40;4.55;;;9.20;57.50;;;;;;5000137;28;20049;-48
2023/12/19 10:16:02;;;;;;;8.10;4.88;;;9.30;57.50;;;;;;5004476;28;20057;-49
2023/12/19 10:18:30;;;;;;;7.20;4.30;;;9.30;57.50;;;;;;4995417;28;20053;-45
2023/12/19 10:21:05;;;;;;;6.78;4.40;;;9.30;57.50;;;;;;5002227;28;20505;-50
2023/12/19 10:23:34;;;;;;;5.03;3.65;;;9.40;57.50;;;;;;4998407;28;20045;-49
2023/12/19 10:26:03;;;;;;;7.25;4.10;;;9.40;57.60;;;;;;4997564;28;20057;-49
2023/12/19 10:28:32;;;;;;;6.25;4.10;;;9.40;57.60;;;;;;5000681;28;20050;-50
2023/12/19 10:31:11;;;;;;;6.90;4.25;;;9.40;57.60;;;;;;4999625;28;20057;-41
2023/12/19 10:33:45;;;;;;;6.97;4.40;;;9.40;57.60;;;;;;4997399;28;20046;-48
2023/12/19 10:36:22;;;;;;;;;;;9.40;57.60;;;;;;5001265;28;20078;-48
2023/12/19 10:38:51;;;;;;;7.82;4.88;;;9.50;57.70;;;;;;5001640;28;19921;-49
2023/12/19 10:41:21;;;;;;;7.07;4.60;;;9.60;57.60;;;;;;4999189;28;20418;-45
2023/12/19 10:43:51;;;;;;;5.53;4.25;;;9.60;57.50;;;;;;4997494;28;20045;-49
2023/12/19 10:46:24;;;;;;;5.97;3.90;;;9.60;57.40;;;;;;5002600;28;20057;-40
2023/12/19 10:48:52;;;;;;;9.43;4.18;;;9.60;57.40;;;;;;5000960;28;20064;-47
2023/12/19 10:51:28;;;;;;;6.40;4.07;;;9.60;57.40;;;;;;5002164;28;20061;-45
2023/12/19 10:54:02;;;;;;;5.70;3.85;;;9.60;57.30;;;;;;4994881;28;20058;-44
2023/12/19 10:56:35;;;;;;;7.13;3.97;;;9.60;57.20;;;;;;4999368;28;20061;-45
2023/12/19 10:59:05;;;;;;;6.25;4.03;;;9.70;57.20;;;;;;4995329;28;20050;-50
2023/12/19 11:01:38;;;;;;;7.05;3.95;;;9.70;57.20;;;;;;4996797;28;20486;-50
2023/12/19 11:04:20;;;;;;;7.03;3.80;;;9.70;57.10;;;;;;5001309;28;20058;-51
2023/12/19 11:06:54;;;;;;;7.07;3.88;;;9.70;57.10;;;;;;4995673;28;20485;-38
2023/12/19 11:09:29;;;;;;;5.93;3.35;;;9.70;57.10;;;;;;5001361;28;20061;-38
2023/12/19 11:11:58;;;;;;;5.25;3.25;;;9.70;57.10;;;;;;4998730;28;20050;-38
2023/12/19 11:14:27;;;;;;;5.18;2.53;;;9.70;57.30;;;;;;4998365;28;20057;-38
2023/12/19 11:16:59;;;;;;;4.55;3.00;;;9.80;57.40;;;;;;4998066;28;20057;-38
2023/12/19 11:19:31;;;;;;;5.53;2.60;;;9.80;57.50;;;;;;4999870;28;20046;-38
2023/12/19 11:22:05;;;;;;;5.78;2.63;;;9.80;57.50;;;;;;4996468;28;20042;-37
2023/12/19 11:24:38;;;;;;;6.90;2.57;;;9.80;57.50;;;;;;5006595;28;20053;-37
2023/12/19 11:27:14;;;;;;;5.45;3.53;;;9.80;57.50;;;;;;4996816;28;20050;-38
2023/12/19 11:29:50;;;;;;;7.93;3.80;;;9.80;57.50;;;;;;5002496;28;20410;-38
2023/12/19 11:32:40;;;;;;;5.68;2.03;;;9.80;57.50;;;;;;4998061;28;20073;-38
2023/12/19 11:35:12;;;;;;;8.57;2.40;;;9.90;57.60;;;;;;5000439;28;20061;-37
2023/12/19 11:37:41;;;;;;;7.65;2.00;;;9.90;57.60;;;;;;4997192;28;20410;-37
2023/12/19 11:40:18;;;;;;;3.85;2.00;;;9.90;57.60;;;;;;5000143;28;20050;-37
2023/12/19 11:42:48;;;;;;;3.53;1.98;;;9.90;57.60;;;;;;4998413;28;20057;-37
2023/12/19 11:45:38;;;;;;;4.95;1.98;;;9.90;57.50;;;;;;4999085;28;20050;-38
2023/12/19 11:48:37;;;;;;;8.65;2.42;;;9.90;57.50;;;;;;5003496;28;21407;-37
2023/12/19 11:51:07;;;;;;;5.10;1.55;;;10.00;57.50;;;;;;4999901;28;20057;-38
2023/12/19 11:53:34;;;;;;;3.53;2.03;;;10.00;57.50;;;;;;4998887;28;20065;-37
2023/12/19 11:56:05;;;;;;;4.97;1.70;;;10.00;57.40;;;;;;5001169;28;20049;-37
2023/12/19 11:58:33;;;;;;;3.40;1.90;;;10.00;57.30;;;;;;4997149;28;20061;-37
2023/12/19 12:01:01;;;;;;;3.28;1.83;;;10.00;57.30;;;;;;5005183;28;20054;-37
2023/12/19 12:03:28;;;;;;;3.58;1.63;;;10.00;57.30;;;;;;5003023;28;20054;-37
2023/12/19 12:05:56;;;;;;;3.78;2.17;;;10.00;57.30;;;;;;5000309;28;20061;-38
2023/12/19 12:08:23;;;;;;;2.67;1.77;;;10.10;57.30;;;;;;5007966;28;20054;-37
2023/12/19 12:11:01;;;;;;;8.32;1.88;;;10.10;57.20;;;;;;5001781;28;20406;-37
2023/12/19 12:13:30;;;;;;;4.90;2.33;;;10.00;57.20;;;;;;5005368;28;20073;-38
2023/12/19 12:15:59;;;;;;;3.33;1.95;;;10.10;57.20;;;;;;5008884;28;20053;-37
2023/12/19 12:18:27;;;;;;;3.45;2.30;;;10.10;57.30;;;;;;5002319;28;20525;-37
2023/12/19 12:20:56;;;;;;;3.30;1.70;;;10.10;57.30;;;;;;5010442;28;20042;-38
2023/12/19 12:23:23;;;;;;;4.22;2.40;;;10.10;57.20;;;;;;5008668;28;20054;-37
2023/12/19 12:25:57;;;;;;;3.58;2.30;;;10.20;57.30;;;;;;5001966;28;20407;-37
2023/12/19 12:28:26;;;;;;;3.53;2.30;;;10.20;57.20;;;;;;5002134;28;20501;-37
2023/12/19 12:30:56;;;;;;;3.95;2.05;;;10.20;57.20;;;;;;5005952;28;20046;-36
2023/12/19 12:33:25;;;;;;;3.83;2.55;;;10.20;57.20;;;;;;5010543;28;20053;-37
2023/12/19 12:35:53;;;;;;;5.22;3.08;;;10.20;57.10;;;;;;5008068;28;20053;-37
2023/12/19 12:38:22;;;;;;;8.80;2.72;;;10.20;57.10;;;;;;5002400;28;20406;-36
2023/12/19 12:40:59;;;;;;;3.22;2.28;;;10.30;57.10;;;;;;5004009;28;20410;-36
2023/12/19 12:43:33;;;;;;;3.88;2.65;;;10.30;56.90;;;;;;5003076;28;20249;-37
2023/12/19 12:46:19;;;;;;;;;;;10.30;56.90;;;;;;5003012;28;20055;-37
2023/12/19 12:49:02;;;;;;;5.20;2.90;;;10.40;56.90;;;;;;5003963;28;19948;-37
2023/12/19 12:51:30;;;;;;;4.18;2.65;;;10.40;56.60;;;;;;5004746;28;20061;-37
2023/12/19 12:53:59;;;;;;;3.22;2.42;;;10.40;56.50;;;;;;5006775;28;20736;-36
2023/12/19 12:56:31;;;;;;;4.35;2.63;;;10.30;56.50;;;;;;5000910;28;20419;-37
2023/12/19 12:59:03;;;;;;;5.15;3.00;;;10.30;56.40;;;;;;5004702;28;20069;-37